Flight Track Log - Related Links

Times and Time Zones

All times are in EDT time to prevent confusion due to time zone crossing. See the SWA407 flight status page for this flight to view local times or setup timezone preferences in your user account.

Time Position Orientation Groundspeed Altitude Reporting Facility
EDT Latitude Longitude Course Direction KTS MPH feet Rate Location/Type
Wed 02:58:49 PM 28.4167 -81.3000 180° South 155 178 600  Level Orlando TRACON
Wed 02:59:07 PM 28.4000 -81.3000 180° South 150 173 1,300 2,786 Climbing Orlando TRACON
Wed 03:00:13 PM 28.3500 -81.2667 150° Southeast 212 244 4,500 3,286 Climbing Orlando TRACON
Wed 03:01:13 PM 28.3833 -81.2167 53° Northeast 231 266 8,200 3,550 Climbing Orlando TRACON
Wed 03:02:13 PM 28.4500 -81.2000 12° North 288 331 11,600 2,943 Climbing Orlando TRACON
Wed 03:03:52 PM 28.5836 -81.2258 350° North 340 391 16,000 2,868 Climbing Jacksonville Center
Wed 03:04:52 PM 28.6758 -81.2550 344° North 340 391 19,200 3,100 Climbing Jacksonville Center
Wed 03:05:52 PM 28.7700 -81.2867 344° North 340 391 22,200 2,300 Climbing Jacksonville Center
Wed 03:06:52 PM 28.8750 -81.3206 344° North 360 414 23,800 2,050 Climbing Jacksonville Center
Wed 03:07:52 PM 28.9858 -81.3519 346° North 386 444 26,300 2,350 Climbing Jacksonville Center
Wed 03:08:52 PM 29.0992 -81.3906 343° North 411 473 28,500 2,350 Climbing Jacksonville Center
Wed 03:09:52 PM 29.2250 -81.4436 340° North 430 495 31,000 2,500 Climbing Jacksonville Center
Wed 03:10:52 PM 29.3403 -81.4869 342° North 430 495 33,500 2,000 Climbing Jacksonville Center
Wed 03:11:52 PM 29.4514 -81.5331 340° North 430 495 35,000 750 Climbing Jacksonville Center
Wed 03:12:52 PM 29.5644 -81.5794 340° North 430 495 35,000  Level Jacksonville Center
Wed 03:13:52 PM 29.6797 -81.6256 341° North 430 495 35,000  Level Jacksonville Center
Wed 03:14:52 PM 29.7931 -81.6719 340° North 430 495 35,000  Level Jacksonville Center
Wed 03:15:52 PM 29.9083 -81.7161 342° North 430 495 35,000  Level Jacksonville Center
Wed 03:16:52 PM 30.0214 -81.7578 342° North 430 495 35,000  Level Jacksonville Center
Wed 03:17:52 PM 30.1344 -81.8069 339° North 430 495 35,000  Level Jacksonville Center
Wed 03:18:52 PM 30.2497 -81.8539 341° North 430 495 35,000  Level Jacksonville Center
Wed 03:19:52 PM 30.3628 -81.9006 340° North 430 495 35,000  Level Jacksonville Center
Wed 03:20:52 PM 30.4758 -81.9453 341° North 438 504 35,000  Level Jacksonville Center
Wed 03:21:52 PM 30.5808 -81.9950 338° Northwest 429 494 35,000  Level Jacksonville Center
Wed 03:22:52 PM 30.6917 -82.0397 341° North 429 494 35,000  Level Jacksonville Center
Wed 03:23:52 PM 30.8047 -82.0872 340° North 434 499 35,000  Level Jacksonville Center
Wed 03:24:52 PM 30.9178 -82.1347 340° North 428 493 35,000  Level Jacksonville Center
Wed 03:25:52 PM 31.0308 -82.1797 341° North 433 498 35,000  Level Jacksonville Center
Wed 03:26:52 PM 31.1458 -82.2300 339° North 433 498 35,000  Level Jacksonville Center
Wed 03:27:52 PM 31.2569 -82.2778 340° North 433 498 35,000  Level Jacksonville Center
Wed 03:28:52 PM 31.3719 -82.3281 340° North 433 498 35,000  Level Jacksonville Center
Wed 03:29:52 PM 31.4869 -82.3689 343° North 428 493 35,000  Level Jacksonville Center
Wed 03:30:52 PM 31.6019 -82.4169 340° North 428 493 35,000  Level Jacksonville Center
Wed 03:33:04 PM 31.8542 -82.5253 340° North 440 506 35,000  Level Atlanta Center
Wed 03:34:04 PM 31.9653 -82.5750 339° North 433 498 35,000 -50 Level Atlanta Center
Wed 03:35:04 PM 32.0725 -82.6319 336° Northwest 433 498 34,900 -550 Descending Atlanta Center
Wed 03:36:04 PM 32.1633 -82.7239 319° Northwest 424 488 33,900 -1,000 Descending Atlanta Center
Wed 03:37:04 PM 32.2539 -82.8181 319° Northwest 424 488 32,900 -1,000 Descending Atlanta Center
Wed 03:38:04 PM 32.3467 -82.9103 320° Northwest 429 494 31,900 -950 Descending Atlanta Center
Wed 03:39:04 PM 32.4372 -83.0053 318° Northwest 434 499 31,000 -900 Descending Atlanta Center
Wed 03:40:04 PM 32.5300 -83.1003 319° Northwest 434 499 30,100 -950 Descending Atlanta Center
Wed 03:41:04 PM 32.6267 -83.2003 319° Northwest 445 512 29,100 -1,200 Descending Atlanta Center
Wed 03:42:04 PM 32.7192 -83.2956 319° Northwest 445 512 27,700 -1,900 Descending Atlanta Center
Wed 03:43:04 PM 32.8031 -83.3789 320° Northwest 435 501 25,300 -2,450 Descending Atlanta Center
Wed 03:44:04 PM 32.8892 -83.4722 318° Northwest 432 497 22,800 -2,650 Descending Atlanta Center
Wed 03:45:04 PM 32.9939 -83.5806 319° Northwest 425 489 20,000 -2,300 Descending Atlanta Center
Wed 03:46:04 PM 33.0672 -83.6522 321° Northwest 410 472 18,200 -2,125 Descending Atlanta Center
Wed 03:46:40 PM 33.1333 -83.7167 321° Northwest 381 438 16,600 -2,467 Descending Atlanta TRACON
Wed 03:47:34 PM 33.2000 -83.7833 320° Northwest 379 436 14,500 -1,650 Descending Atlanta TRACON
Wed 03:48:40 PM 33.2667 -83.8833 309° West 366 421 13,300 -933 Descending Atlanta TRACON
Wed 03:49:04 PM 33.2869 -83.9169 306° West 372 428 13,100 -857 Descending Atlanta Center
Wed 03:50:04 PM 33.3497 -84.0089 309° West 360 414 12,100 -550 Descending Atlanta Center
Wed 03:51:04 PM 33.4081 -84.0986 308° West 353 406 12,000 -63 Descending Atlanta Center
Wed 03:51:40 PM 33.4500 -84.1500 314° West 288 331 12,000  Level Atlanta TRACON
Wed 03:52:40 PM 33.5000 -84.2333 306° West 267 307 12,000 -100 Level Atlanta TRACON
Wed 03:53:40 PM 33.5333 -84.3000 301° West 264 304 11,800 -650 Descending Atlanta TRACON
Wed 03:54:40 PM 33.5500 -84.3833 284° West 263 303 10,700 -1,050 Descending Atlanta TRACON
Wed 03:55:40 PM 33.5500 -84.4667 270° West 257 296 9,700 -1,600 Descending Atlanta TRACON
Wed 03:56:40 PM 33.5500 -84.5500 270° West 245 282 7,500 -2,100 Descending Atlanta TRACON
Wed 03:57:40 PM 33.5500 -84.6333 270° West 253 291 5,500 -1,950 Descending Atlanta TRACON
Wed 03:58:40 PM 33.5667 -84.7000 287° West 258 297 3,600 -1,250 Descending Atlanta TRACON
Wed 03:59:40 PM 33.6000 -84.6833 23° Northeast 194 223 3,000 -300 Descending Atlanta TRACON
Wed 04:00:40 PM 33.6167 -84.6333 68° East 165 190 3,000 -50 Level Atlanta TRACON
Wed 04:01:40 PM 33.6167 -84.5833 90° East 163 188 2,900 -350 Descending Atlanta TRACON
Wed 04:02:40 PM 33.6167 -84.5167 90° East 166 191 2,300 -650 Descending Atlanta TRACON
Wed 04:03:40 PM 33.6167 -84.4833 90° East 125 144 1,600 -700 Descending Atlanta TRACON
Wed 04:05:00 PM 33.6367 -84.4279 64° Northeast  Level Estimated
Wed 04:12:00 PM 33.6367 -84.4279 64° Northeast  Level Estimated

Login

Don't have an account? Register now (free) for customized features, flight alerts, and more!